sensor_id;sensor_type;location;lat;lon;timestamp;P1;durP1;ratioP1;P2;durP2;ratioP2
75516;SDS011;64097;52.548;13.406;2023-04-10T06:04:56;17.85;;;14.27;;
75516;SDS011;64097;52.548;13.406;2023-04-10T06:07:22;16.77;;;13.68;;
75516;SDS011;64097;52.548;13.406;2023-04-10T06:09:47;17.70;;;14.38;;
75516;SDS011;64097;52.548;13.406;2023-04-10T06:12:13;17.17;;;13.23;;
75516;SDS011;64097;52.548;13.406;2023-04-10T06:14:39;15.57;;;12.85;;
75516;SDS011;64097;52.548;13.406;2023-04-10T06:17:05;17.13;;;13.60;;
75516;SDS011;64097;52.548;13.406;2023-04-10T06:19:31;18.65;;;14.13;;
75516;SDS011;64097;52.548;13.406;2023-04-10T06:21:56;21.00;;;15.82;;
75516;SDS011;64097;52.548;13.406;2023-04-10T06:24:22;17.92;;;14.68;;
75516;SDS011;64097;52.548;13.406;2023-04-10T06:26:49;16.90;;;14.07;;
75516;SDS011;64097;52.548;13.406;2023-04-10T06:29:15;18.95;;;14.60;;
75516;SDS011;64097;52.548;13.406;2023-04-10T06:31:40;19.70;;;15.10;;
75516;SDS011;64097;52.548;13.406;2023-04-10T06:34:06;21.58;;;15.05;;
75516;SDS011;64097;52.548;13.406;2023-04-10T06:36:32;17.05;;;13.45;;
75516;SDS011;64097;52.548;13.406;2023-04-10T06:38:57;18.55;;;14.50;;
75516;SDS011;64097;52.548;13.406;2023-04-10T06:41:23;17.65;;;14.65;;
75516;SDS011;64097;52.548;13.406;2023-04-10T06:43:49;19.08;;;15.15;;
75516;SDS011;64097;52.548;13.406;2023-04-10T06:46:14;18.27;;;15.00;;
75516;SDS011;64097;52.548;13.406;2023-04-10T06:48:41;17.90;;;14.93;;
75516;SDS011;64097;52.548;13.406;2023-04-10T06:51:06;17.33;;;14.25;;
75516;SDS011;64097;52.548;13.406;2023-04-10T06:53:32;18.15;;;14.73;;
75516;SDS011;64097;52.548;13.406;2023-04-10T06:55:58;20.88;;;16.75;;
75516;SDS011;64097;52.548;13.406;2023-04-10T06:58:23;21.15;;;16.92;;
75516;SDS011;64097;52.548;13.406;2023-04-10T07:00:49;21.80;;;18.33;;
75516;SDS011;64097;52.548;13.406;2023-04-10T07:03:15;23.23;;;18.13;;
75516;SDS011;64097;52.548;13.406;2023-04-10T07:05:40;22.45;;;19.17;;
75516;SDS011;64097;52.548;13.406;2023-04-10T07:08:06;21.48;;;18.10;;
75516;SDS011;64097;52.548;13.406;2023-04-10T07:10:32;19.13;;;16.30;;
75516;SDS011;64097;52.548;13.406;2023-04-10T07:12:58;20.77;;;16.88;;
75516;SDS011;64097;52.548;13.406;2023-04-10T07:15:25;20.27;;;16.50;;
75516;SDS011;64097;52.548;13.406;2023-04-10T07:17:50;24.73;;;20.80;;
75516;SDS011;64097;52.548;13.406;2023-04-10T07:20:16;26.25;;;22.35;;
75516;SDS011;64097;52.548;13.406;2023-04-10T07:22:42;30.40;;;22.92;;
75516;SDS011;64097;52.548;13.406;2023-04-10T07:25:08;26.10;;;21.88;;
75516;SDS011;64097;52.548;13.406;2023-04-10T07:27:33;28.10;;;24.25;;
75516;SDS011;64097;52.548;13.406;2023-04-10T07:29:59;31.48;;;26.00;;
75516;SDS011;64097;52.548;13.406;2023-04-10T07:32:25;31.40;;;26.08;;
75516;SDS011;64097;52.548;13.406;2023-04-10T07:34:51;30.63;;;26.13;;
75516;SDS011;64097;52.548;13.406;2023-04-10T07:37:16;25.63;;;22.05;;
75516;SDS011;64097;52.548;13.406;2023-04-10T07:39:42;26.92;;;23.38;;
75516;SDS011;64097;52.548;13.406;2023-04-10T07:42:09;28.17;;;24.45;;
75516;SDS011;64097;52.548;13.406;2023-04-10T07:44:35;28.05;;;23.17;;
75516;SDS011;64097;52.548;13.406;2023-04-10T07:47:01;31.08;;;25.38;;
75516;SDS011;64097;52.548;13.406;2023-04-10T07:49:27;26.20;;;22.38;;
75516;SDS011;64097;52.548;13.406;2023-04-10T07:51:53;26.58;;;22.50;;
75516;SDS011;64097;52.548;13.406;2023-04-10T07:54:19;30.67;;;25.40;;
75516;SDS011;64097;52.548;13.406;2023-04-10T07:56:45;27.52;;;22.20;;
75516;SDS011;64097;52.548;13.406;2023-04-10T07:59:11;27.40;;;22.77;;
75516;SDS011;64097;52.548;13.406;2023-04-10T08:01:36;31.13;;;25.77;;
75516;SDS011;64097;52.548;13.406;2023-04-10T08:04:02;27.83;;;23.48;;
75516;SDS011;64097;52.548;13.406;2023-04-10T08:06:29;27.70;;;22.60;;
75516;SDS011;64097;52.548;13.406;2023-04-10T08:08:56;25.15;;;22.45;;
75516;SDS011;64097;52.548;13.406;2023-04-10T08:11:25;29.30;;;25.08;;
75516;SDS011;64097;52.548;13.406;2023-04-10T08:13:57;28.25;;;23.55;;
75516;SDS011;64097;52.548;13.406;2023-04-10T08:16:26;29.67;;;24.60;;
75516;SDS011;64097;52.548;13.406;2023-04-10T08:18:53;26.08;;;22.45;;
75516;SDS011;64097;52.548;13.406;2023-04-10T08:21:26;25.95;;;22.85;;
75516;SDS011;64097;52.548;13.406;2023-04-10T08:23:53;30.65;;;25.17;;
75516;SDS011;64097;52.548;13.406;2023-04-10T08:26:24;33.00;;;26.90;;
75516;SDS011;64097;52.548;13.406;2023-04-10T08:28:51;28.63;;;24.42;;
75516;SDS011;64097;52.548;13.406;2023-04-10T08:31:17;26.48;;;22.70;;
75516;SDS011;64097;52.548;13.406;2023-04-10T08:33:44;28.08;;;24.58;;
75516;SDS011;64097;52.548;13.406;2023-04-10T08:36:10;27.25;;;23.45;;
75516;SDS011;64097;52.548;13.406;2023-04-10T08:38:37;26.63;;;22.67;;
75516;SDS011;64097;52.548;13.406;2023-04-10T08:41:05;25.88;;;23.02;;
75516;SDS011;64097;52.548;13.406;2023-04-10T08:43:33;26.75;;;23.58;;
75516;SDS011;64097;52.548;13.406;2023-04-10T08:46:00;29.35;;;25.63;;
75516;SDS011;64097;52.548;13.406;2023-04-10T08:48:35;25.23;;;22.25;;
75516;SDS011;64097;52.548;13.406;2023-04-10T08:51:09;29.83;;;25.50;;
75516;SDS011;64097;52.548;13.406;2023-04-10T08:53:44;26.27;;;22.55;;
75516;SDS011;64097;52.548;13.406;2023-04-10T08:56:14;32.85;;;28.00;;
75516;SDS011;64097;52.548;13.406;2023-04-10T08:58:41;30.42;;;25.77;;
75516;SDS011;64097;52.548;13.406;2023-04-10T09:01:08;27.70;;;23.13;;
75516;SDS011;64097;52.548;13.406;2023-04-10T09:03:35;26.17;;;23.13;;
75516;SDS011;64097;52.548;13.406;2023-04-10T09:06:02;24.98;;;21.27;;
75516;SDS011;64097;52.548;13.406;2023-04-10T09:08:28;28.85;;;25.02;;
75516;SDS011;64097;52.548;13.406;2023-04-10T09:10:55;26.00;;;22.95;;
75516;SDS011;64097;52.548;13.406;2023-04-10T09:16:03;28.58;;;24.33;;
75516;SDS011;64097;52.548;13.406;2023-04-10T09:18:43;31.20;;;25.70;;
75516;SDS011;64097;52.548;13.406;2023-04-10T09:21:22;26.60;;;22.63;;
75516;SDS011;64097;52.548;13.406;2023-04-10T09:23:48;25.85;;;22.83;;
75516;SDS011;64097;52.548;13.406;2023-04-10T09:28:54;21.65;;;18.40;;
75516;SDS011;64097;52.548;13.406;2023-04-10T09:34:10;19.95;;;15.98;;
75516;SDS011;64097;52.548;13.406;2023-04-10T09:36:36;19.45;;;16.52;;
75516;SDS011;64097;52.548;13.406;2023-04-10T09:39:03;21.50;;;17.63;;
75516;SDS011;64097;52.548;13.406;2023-04-10T09:41:30;18.40;;;15.73;;
75516;SDS011;64097;52.548;13.406;2023-04-10T09:44:05;16.42;;;14.23;;
75516;SDS011;64097;52.548;13.406;2023-04-10T09:46:33;20.48;;;16.70;;
75516;SDS011;64097;52.548;13.406;2023-04-10T09:48:59;18.90;;;15.73;;
75516;SDS011;64097;52.548;13.406;2023-04-10T09:51:31;21.50;;;16.92;;
75516;SDS011;64097;52.548;13.406;2023-04-10T09:53:58;18.65;;;15.18;;
75516;SDS011;64097;52.548;13.406;2023-04-10T09:56:25;18.90;;;15.73;;
75516;SDS011;64097;52.548;13.406;2023-04-10T09:58:52;19.38;;;16.38;;
75516;SDS011;64097;52.548;13.406;2023-04-10T10:01:23;19.98;;;17.25;;
75516;SDS011;64097;52.548;13.406;2023-04-10T10:03:55;20.98;;;16.55;;
75516;SDS011;64097;52.548;13.406;2023-04-10T10:06:25;19.00;;;15.60;;
75516;SDS011;64097;52.548;13.406;2023-04-10T10:08:51;18.05;;;14.32;;
75516;SDS011;64097;52.548;13.406;2023-04-10T10:11:20;19.63;;;15.32;;
75516;SDS011;64097;52.548;13.406;2023-04-10T10:13:48;16.67;;;14.40;;
75516;SDS011;64097;52.548;13.406;2023-04-10T10:21:21;16.13;;;13.95;;
75516;SDS011;64097;52.548;13.406;2023-04-10T10:23:48;17.40;;;14.73;;
75516;SDS011;64097;52.548;13.406;2023-04-10T10:26:18;17.65;;;14.55;;
75516;SDS011;64097;52.548;13.406;2023-04-10T10:28:45;16.08;;;13.38;;
75516;SDS011;64097;52.548;13.406;2023-04-10T10:31:12;19.50;;;15.15;;
75516;SDS011;64097;52.548;13.406;2023-04-10T10:33:38;16.30;;;13.27;;
75516;SDS011;64097;52.548;13.406;2023-04-10T10:36:05;17.00;;;14.50;;
75516;SDS011;64097;52.548;13.406;2023-04-10T10:38:32;16.70;;;13.23;;
75516;SDS011;64097;52.548;13.406;2023-04-10T10:46:02;16.95;;;14.48;;
75516;SDS011;64097;52.548;13.406;2023-04-10T10:48:29;15.85;;;13.60;;
75516;SDS011;64097;52.548;13.406;2023-04-10T10:50:57;15.93;;;13.57;;
75516;SDS011;64097;52.548;13.406;2023-04-10T10:53:41;13.40;;;11.70;;
75516;SDS011;64097;52.548;13.406;2023-04-10T10:56:40;15.75;;;12.80;;
75516;SDS011;64097;52.548;13.406;2023-04-10T10:58:59;13.55;;;11.98;;
75516;SDS011;64097;52.548;13.406;2023-04-10T11:01:26;13.40;;;11.57;;
75516;SDS011;64097;52.548;13.406;2023-04-10T11:03:52;15.80;;;12.50;;
75516;SDS011;64097;52.548;13.406;2023-04-10T11:06:19;12.02;;;10.80;;
75516;SDS011;64097;52.548;13.406;2023-04-10T11:08:49;12.70;;;11.40;;
75516;SDS011;64097;52.548;13.406;2023-04-10T11:11:22;13.32;;;10.88;;
75516;SDS011;64097;52.548;13.406;2023-04-10T11:16:20;11.40;;;9.57;;
75516;SDS011;64097;52.548;13.406;2023-04-10T11:34:23;12.43;;;9.70;;
75516;SDS011;64097;52.548;13.406;2023-04-10T11:36:51;10.02;;;8.63;;
75516;SDS011;64097;52.548;13.406;2023-04-10T11:39:18;9.50;;;8.25;;
75516;SDS011;64097;52.548;13.406;2023-04-10T11:44:18;11.27;;;9.38;;
75516;SDS011;64097;52.548;13.406;2023-04-10T11:46:47;11.50;;;9.68;;
75516;SDS011;64097;52.548;13.406;2023-04-10T11:49:18;11.77;;;9.27;;
75516;SDS011;64097;52.548;13.406;2023-04-10T11:51:46;10.57;;;9.10;;
75516;SDS011;64097;52.548;13.406;2023-04-10T11:54:23;11.55;;;9.20;;
75516;SDS011;64097;52.548;13.406;2023-04-10T11:57:03;9.88;;;8.88;;
75516;SDS011;64097;52.548;13.406;2023-04-10T11:59:30;9.30;;;8.30;;
75516;SDS011;64097;52.548;13.406;2023-04-10T12:02:10;9.50;;;8.10;;
75516;SDS011;64097;52.548;13.406;2023-04-10T12:04:43;11.15;;;8.90;;
75516;SDS011;64097;52.548;13.406;2023-04-10T12:07:09;8.57;;;7.55;;
75516;SDS011;64097;52.548;13.406;2023-04-10T12:09:35;8.45;;;7.55;;
75516;SDS011;64097;52.548;13.406;2023-04-10T12:12:06;7.72;;;6.93;;
75516;SDS011;64097;52.548;13.406;2023-04-10T12:14:36;8.75;;;7.80;;
75516;SDS011;64097;52.548;13.406;2023-04-10T12:17:03;9.43;;;7.10;;
75516;SDS011;64097;52.548;13.406;2023-04-10T12:19:31;8.85;;;7.65;;
75516;SDS011;64097;52.548;13.406;2023-04-10T12:21:58;10.07;;;7.25;;
75516;SDS011;64097;52.548;13.406;2023-04-10T12:24:43;9.00;;;7.85;;
75516;SDS011;64097;52.548;13.406;2023-04-10T12:27:19;10.18;;;7.85;;
75516;SDS011;64097;52.548;13.406;2023-04-10T12:29:51;8.57;;;7.68;;
75516;SDS011;64097;52.548;13.406;2023-04-10T12:32:18;7.82;;;7.03;;
75516;SDS011;64097;52.548;13.406;2023-04-10T12:34:54;8.27;;;6.93;;
75516;SDS011;64097;52.548;13.406;2023-04-10T12:37:21;11.05;;;8.23;;
75516;SDS011;64097;52.548;13.406;2023-04-10T12:39:47;9.05;;;7.47;;
75516;SDS011;64097;52.548;13.406;2023-04-10T12:42:18;7.35;;;6.53;;
75516;SDS011;64097;52.548;13.406;2023-04-10T12:44:57;8.50;;;6.10;;
75516;SDS011;64097;52.548;13.406;2023-04-10T12:47:24;7.40;;;6.45;;
75516;SDS011;64097;52.548;13.406;2023-04-10T12:50:10;7.78;;;6.75;;
75516;SDS011;64097;52.548;13.406;2023-04-10T12:52:38;7.78;;;6.93;;
75516;SDS011;64097;52.548;13.406;2023-04-10T12:57:41;8.98;;;8.02;;
75516;SDS011;64097;52.548;13.406;2023-04-10T13:00:08;7.88;;;6.97;;
75516;SDS011;64097;52.548;13.406;2023-04-10T13:02:36;7.70;;;7.00;;
75516;SDS011;64097;52.548;13.406;2023-04-10T13:05:03;7.13;;;6.43;;
75516;SDS011;64097;52.548;13.406;2023-04-10T13:07:30;7.85;;;7.05;;
75516;SDS011;64097;52.548;13.406;2023-04-10T13:09:56;8.98;;;7.28;;
75516;SDS011;64097;52.548;13.406;2023-04-10T13:12:22;8.50;;;7.50;;
75516;SDS011;64097;52.548;13.406;2023-04-10T13:14:49;8.00;;;7.20;;
75516;SDS011;64097;52.548;13.406;2023-04-10T13:17:15;9.00;;;7.60;;
75516;SDS011;64097;52.548;13.406;2023-04-10T13:19:41;8.88;;;7.90;;
75516;SDS011;64097;52.548;13.406;2023-04-10T13:22:06;9.93;;;8.55;;
75516;SDS011;64097;52.548;13.406;2023-04-10T13:24:32;9.07;;;8.15;;
75516;SDS011;64097;52.548;13.406;2023-04-10T13:26:58;9.05;;;8.15;;
75516;SDS011;64097;52.548;13.406;2023-04-10T13:29:23;9.35;;;8.45;;
75516;SDS011;64097;52.548;13.406;2023-04-10T13:31:49;8.88;;;7.97;;
75516;SDS011;64097;52.548;13.406;2023-04-10T13:34:15;11.60;;;8.07;;
75516;SDS011;64097;52.548;13.406;2023-04-10T13:36:41;8.82;;;7.78;;
75516;SDS011;64097;52.548;13.406;2023-04-10T13:39:07;7.93;;;7.07;;
75516;SDS011;64097;52.548;13.406;2023-04-10T13:41:32;7.80;;;6.63;;
75516;SDS011;64097;52.548;13.406;2023-04-10T13:43:58;8.00;;;6.53;;
75516;SDS011;64097;52.548;13.406;2023-04-10T13:46:24;10.32;;;8.63;;
75516;SDS011;64097;52.548;13.406;2023-04-10T13:48:50;9.55;;;7.85;;
75516;SDS011;64097;52.548;13.406;2023-04-10T13:51:16;8.38;;;7.35;;
75516;SDS011;64097;52.548;13.406;2023-04-10T13:53:41;10.10;;;7.88;;
75516;SDS011;64097;52.548;13.406;2023-04-10T13:56:07;8.15;;;7.35;;
75516;SDS011;64097;52.548;13.406;2023-04-10T13:58:33;8.13;;;7.32;;
